sensor_id;sensor_type;location;lat;lon;timestamp;P1;durP1;ratioP1;P2;durP2;ratioP2
74845;SDS011;63393;48.758;9.254;2022-09-09T06:45:32;87.70;;;19.13;;
74845;SDS011;63393;48.758;9.254;2022-09-09T06:56:52;82.25;;;17.88;;
74845;SDS011;63393;48.758;9.254;2022-09-09T07:41:08;9.57;;;2.28;;
74845;SDS011;63393;48.758;9.254;2022-09-09T07:43:38;10.77;;;2.70;;
74845;SDS011;63393;48.758;9.254;2022-09-09T07:46:08;13.30;;;3.70;;
74845;SDS011;63393;48.758;9.254;2022-09-09T07:48:44;12.18;;;3.00;;
74845;SDS011;63393;48.758;9.254;2022-09-09T07:51:15;11.43;;;2.88;;
74845;SDS011;63393;48.758;9.254;2022-09-09T07:53:44;13.77;;;3.42;;
74845;SDS011;63393;48.758;9.254;2022-09-09T07:56:17;13.32;;;3.20;;
74845;SDS011;63393;48.758;9.254;2022-09-09T07:58:53;12.10;;;3.28;;
74845;SDS011;63393;48.758;9.254;2022-09-09T08:01:23;13.13;;;2.88;;
74845;SDS011;63393;48.758;9.254;2022-09-09T08:03:55;8.63;;;2.63;;
74845;SDS011;63393;48.758;9.254;2022-09-09T08:06:25;9.10;;;2.95;;
74845;SDS011;63393;48.758;9.254;2022-09-09T08:08:53;7.78;;;2.25;;
74845;SDS011;63393;48.758;9.254;2022-09-09T08:11:24;8.30;;;2.50;;
74845;SDS011;63393;48.758;9.254;2022-09-09T08:13:54;11.43;;;2.55;;
74845;SDS011;63393;48.758;9.254;2022-09-09T08:16:22;12.50;;;2.78;;
74845;SDS011;63393;48.758;9.254;2022-09-09T08:18:51;7.72;;;2.10;;
74845;SDS011;63393;48.758;9.254;2022-09-09T08:21:21;8.18;;;2.03;;
74845;SDS011;63393;48.758;9.254;2022-09-09T08:23:50;8.48;;;2.30;;
74845;SDS011;63393;48.758;9.254;2022-09-09T08:26:19;9.00;;;1.90;;
74845;SDS011;63393;48.758;9.254;2022-09-09T08:28:50;8.18;;;2.00;;
74845;SDS011;63393;48.758;9.254;2022-09-09T08:31:19;6.45;;;1.75;;
74845;SDS011;63393;48.758;9.254;2022-09-09T08:33:48;7.55;;;1.70;;
74845;SDS011;63393;48.758;9.254;2022-09-09T08:36:16;6.28;;;1.60;;
74845;SDS011;63393;48.758;9.254;2022-09-09T08:38:46;8.10;;;1.70;;
74845;SDS011;63393;48.758;9.254;2022-09-09T08:41:22;12.57;;;1.98;;
74845;SDS011;63393;48.758;9.254;2022-09-09T08:44:00;11.07;;;2.08;;
74845;SDS011;63393;48.758;9.254;2022-09-09T08:46:31;8.43;;;1.80;;
74845;SDS011;63393;48.758;9.254;2022-09-09T08:49:01;10.50;;;1.80;;
74845;SDS011;63393;48.758;9.254;2022-09-09T08:54:04;7.30;;;2.03;;
74845;SDS011;63393;48.758;9.254;2022-09-09T08:56:32;7.32;;;1.80;;
74845;SDS011;63393;48.758;9.254;2022-09-09T08:59:03;9.43;;;2.20;;
74845;SDS011;63393;48.758;9.254;2022-09-09T09:01:38;9.45;;;1.60;;
74845;SDS011;63393;48.758;9.254;2022-09-09T09:04:13;5.25;;;1.48;;
74845;SDS011;63393;48.758;9.254;2022-09-09T09:06:47;9.57;;;1.63;;
74845;SDS011;63393;48.758;9.254;2022-09-09T09:09:20;8.05;;;1.63;;
74845;SDS011;63393;48.758;9.254;2022-09-09T09:11:50;9.38;;;1.58;;
74845;SDS011;63393;48.758;9.254;2022-09-09T09:14:24;6.93;;;1.60;;
74845;SDS011;63393;48.758;9.254;2022-09-09T09:16:59;6.63;;;1.80;;
74845;SDS011;63393;48.758;9.254;2022-09-09T09:19:29;8.57;;;1.55;;
74845;SDS011;63393;48.758;9.254;2022-09-09T09:21:58;11.02;;;1.77;;
74845;SDS011;63393;48.758;9.254;2022-09-09T09:24:31;8.45;;;1.75;;
74845;SDS011;63393;48.758;9.254;2022-09-09T09:27:06;8.15;;;1.60;;
74845;SDS011;63393;48.758;9.254;2022-09-09T09:29:41;8.05;;;2.33;;
74845;SDS011;63393;48.758;9.254;2022-09-09T09:32:10;5.22;;;1.50;;
74845;SDS011;63393;48.758;9.254;2022-09-09T09:34:39;3.75;;;1.27;;
74845;SDS011;63393;48.758;9.254;2022-09-09T09:37:07;8.55;;;1.50;;
74845;SDS011;63393;48.758;9.254;2022-09-09T09:39:39;9.75;;;2.22;;
74845;SDS011;63393;48.758;9.254;2022-09-09T09:42:07;10.07;;;2.45;;
74845;SDS011;63393;48.758;9.254;2022-09-09T09:44:41;12.77;;;2.47;;
74845;SDS011;63393;48.758;9.254;2022-09-09T09:47:14;9.35;;;2.05;;
74845;SDS011;63393;48.758;9.254;2022-09-09T09:49:52;12.75;;;2.38;;
74845;SDS011;63393;48.758;9.254;2022-09-09T09:52:21;6.13;;;1.33;;
74845;SDS011;63393;48.758;9.254;2022-09-09T09:54:50;5.93;;;1.63;;
74845;SDS011;63393;48.758;9.254;2022-09-09T09:57:22;11.93;;;2.72;;
74845;SDS011;63393;48.758;9.254;2022-09-09T09:59:59;14.50;;;2.63;;
74845;SDS011;63393;48.758;9.254;2022-09-09T10:02:48;6.10;;;1.45;;
74845;SDS011;63393;48.758;9.254;2022-09-09T10:05:23;6.28;;;1.75;;
74845;SDS011;63393;48.758;9.254;2022-09-09T10:10:20;10.30;;;1.92;;
74845;SDS011;63393;48.758;9.254;2022-09-09T10:12:54;7.80;;;1.70;;
74845;SDS011;63393;48.758;9.254;2022-09-09T10:15:29;11.35;;;1.73;;
74845;SDS011;63393;48.758;9.254;2022-09-09T10:18:00;9.13;;;1.80;;
74845;SDS011;63393;48.758;9.254;2022-09-09T10:23:00;3.83;;;1.40;;
74845;SDS011;63393;48.758;9.254;2022-09-09T10:25:33;8.73;;;1.50;;
74845;SDS011;63393;48.758;9.254;2022-09-09T10:30:49;8.23;;;1.65;;
74845;SDS011;63393;48.758;9.254;2022-09-09T10:33:23;5.35;;;1.33;;
74845;SDS011;63393;48.758;9.254;2022-09-09T10:35:57;7.65;;;1.85;;
74845;SDS011;63393;48.758;9.254;2022-09-09T10:38:29;6.40;;;1.40;;
74845;SDS011;63393;48.758;9.254;2022-09-09T10:41:03;8.75;;;1.83;;
74845;SDS011;63393;48.758;9.254;2022-09-09T10:46:26;10.15;;;1.80;;
74845;SDS011;63393;48.758;9.254;2022-09-09T10:49:02;7.70;;;1.60;;
74845;SDS011;63393;48.758;9.254;2022-09-09T10:51:33;8.45;;;1.95;;
74845;SDS011;63393;48.758;9.254;2022-09-09T10:54:09;5.90;;;1.40;;
74845;SDS011;63393;48.758;9.254;2022-09-09T10:56:41;10.00;;;1.60;;
74845;SDS011;63393;48.758;9.254;2022-09-09T10:59:10;5.88;;;1.50;;
74845;SDS011;63393;48.758;9.254;2022-09-09T11:01:41;6.00;;;1.70;;
74845;SDS011;63393;48.758;9.254;2022-09-09T11:04:13;4.60;;;1.30;;
74845;SDS011;63393;48.758;9.254;2022-09-09T11:06:44;16.65;;;6.97;;
74845;SDS011;63393;48.758;9.254;2022-09-09T11:09:16;8.77;;;1.90;;
74845;SDS011;63393;48.758;9.254;2022-09-09T11:11:45;6.38;;;1.48;;
74845;SDS011;63393;48.758;9.254;2022-09-09T11:14:19;6.35;;;1.60;;
74845;SDS011;63393;48.758;9.254;2022-09-09T11:16:50;6.97;;;1.65;;
74845;SDS011;63393;48.758;9.254;2022-09-09T11:19:21;6.05;;;1.55;;
74845;SDS011;63393;48.758;9.254;2022-09-09T11:24:21;10.68;;;2.15;;
74845;SDS011;63393;48.758;9.254;2022-09-09T11:26:50;9.30;;;1.95;;
74845;SDS011;63393;48.758;9.254;2022-09-09T11:32:10;9.73;;;2.00;;
74845;SDS011;63393;48.758;9.254;2022-09-09T11:34:44;11.13;;;2.33;;
74845;SDS011;63393;48.758;9.254;2022-09-09T11:37:17;6.03;;;1.30;;
74845;SDS011;63393;48.758;9.254;2022-09-09T11:39:56;5.60;;;1.60;;
74845;SDS011;63393;48.758;9.254;2022-09-09T11:42:28;6.13;;;1.20;;
74845;SDS011;63393;48.758;9.254;2022-09-09T11:44:55;5.50;;;1.38;;
74845;SDS011;63393;48.758;9.254;2022-09-09T11:47:28;6.70;;;1.88;;
74845;SDS011;63393;48.758;9.254;2022-09-09T11:50:07;5.70;;;1.37;;
74845;SDS011;63393;48.758;9.254;2022-09-09T11:52:38;6.93;;;1.48;;
74845;SDS011;63393;48.758;9.254;2022-09-09T11:55:08;4.97;;;1.27;;
74845;SDS011;63393;48.758;9.254;2022-09-09T11:57:37;3.42;;;1.10;;
74845;SDS011;63393;48.758;9.254;2022-09-09T12:00:05;7.30;;;1.25;;
74845;SDS011;63393;48.758;9.254;2022-09-09T12:02:47;6.70;;;1.45;;
74845;SDS011;63393;48.758;9.254;2022-09-09T12:05:16;3.08;;;0.95;;
74845;SDS011;63393;48.758;9.254;2022-09-09T12:07:47;2.95;;;0.77;;
74845;SDS011;63393;48.758;9.254;2022-09-09T12:10:20;1.88;;;0.80;;
74845;SDS011;63393;48.758;9.254;2022-09-09T12:12:49;2.40;;;0.82;;
74845;SDS011;63393;48.758;9.254;2022-09-09T12:15:18;2.65;;;0.70;;
74845;SDS011;63393;48.758;9.254;2022-09-09T12:17:49;1.23;;;0.50;;
74845;SDS011;63393;48.758;9.254;2022-09-09T12:20:19;2.95;;;1.10;;
74845;SDS011;63393;48.758;9.254;2022-09-09T12:22:50;4.90;;;1.48;;
74845;SDS011;63393;48.758;9.254;2022-09-09T12:25:26;1.48;;;0.75;;
74845;SDS011;63393;48.758;9.254;2022-09-09T12:28:02;2.67;;;0.80;;
74845;SDS011;63393;48.758;9.254;2022-09-09T12:30:34;5.95;;;1.20;;
74845;SDS011;63393;48.758;9.254;2022-09-09T12:33:08;7.65;;;1.10;;
74845;SDS011;63393;48.758;9.254;2022-09-09T12:35:38;6.00;;;1.30;;
74845;SDS011;63393;48.758;9.254;2022-09-09T12:38:06;2.05;;;0.93;;
74845;SDS011;63393;48.758;9.254;2022-09-09T12:40:36;3.67;;;0.85;;
74845;SDS011;63393;48.758;9.254;2022-09-09T12:43:15;3.97;;;1.17;;
74845;SDS011;63393;48.758;9.254;2022-09-09T12:45:43;5.55;;;1.10;;
74845;SDS011;63393;48.758;9.254;2022-09-09T12:48:13;4.13;;;0.95;;
74845;SDS011;63393;48.758;9.254;2022-09-09T12:50:43;4.35;;;1.20;;
74845;SDS011;63393;48.758;9.254;2022-09-09T12:53:12;6.28;;;1.05;;
74845;SDS011;63393;48.758;9.254;2022-09-09T12:55:48;5.05;;;0.80;;
74845;SDS011;63393;48.758;9.254;2022-09-09T12:58:17;2.40;;;0.93;;
74845;SDS011;63393;48.758;9.254;2022-09-09T13:00:48;5.88;;;1.10;;
74845;SDS011;63393;48.758;9.254;2022-09-09T13:03:19;4.57;;;1.13;;
74845;SDS011;63393;48.758;9.254;2022-09-09T13:05:47;10.43;;;1.30;;
74845;SDS011;63393;48.758;9.254;2022-09-09T13:08:16;5.55;;;1.02;;
74845;SDS011;63393;48.758;9.254;2022-09-09T13:10:46;2.75;;;1.02;;
74845;SDS011;63393;48.758;9.254;2022-09-09T13:13:14;3.85;;;0.90;;
74845;SDS011;63393;48.758;9.254;2022-09-09T13:15:48;9.57;;;2.47;;
74845;SDS011;63393;48.758;9.254;2022-09-09T13:18:17;3.75;;;0.82;;
74845;SDS011;63393;48.758;9.254;2022-09-09T13:20:50;9.73;;;3.75;;
74845;SDS011;63393;48.758;9.254;2022-09-09T13:23:18;4.15;;;1.30;;
74845;SDS011;63393;48.758;9.254;2022-09-09T13:25:55;3.92;;;1.17;;
74845;SDS011;63393;48.758;9.254;2022-09-09T13:28:23;3.80;;;1.35;;
74845;SDS011;63393;48.758;9.254;2022-09-09T13:30:56;3.55;;;1.65;;
74845;SDS011;63393;48.758;9.254;2022-09-09T13:33:30;3.75;;;1.20;;
74845;SDS011;63393;48.758;9.254;2022-09-09T13:36:00;3.88;;;1.10;;
74845;SDS011;63393;48.758;9.254;2022-09-09T13:38:31;7.15;;;1.30;;
74845;SDS011;63393;48.758;9.254;2022-09-09T13:41:01;3.17;;;0.93;;
74845;SDS011;63393;48.758;9.254;2022-09-09T13:43:31;4.32;;;1.33;;
74845;SDS011;63393;48.758;9.254;2022-09-09T13:45:59;6.35;;;1.20;;
74845;SDS011;63393;48.758;9.254;2022-09-09T13:48:27;4.20;;;1.00;;
74845;SDS011;63393;48.758;9.254;2022-09-09T13:53:42;3.70;;;1.08;;
74845;SDS011;63393;48.758;9.254;2022-09-09T13:56:14;2.97;;;1.00;;
74845;SDS011;63393;48.758;9.254;2022-09-09T13:58:46;6.85;;;1.20;;
74845;SDS011;63393;48.758;9.254;2022-09-09T14:01:17;1.83;;;0.80;;
74845;SDS011;63393;48.758;9.254;2022-09-09T14:03:48;5.60;;;1.40;;
74845;SDS011;63393;48.758;9.254;2022-09-09T14:06:15;4.07;;;1.60;;
74845;SDS011;63393;48.758;9.254;2022-09-09T14:08:45;3.65;;;1.10;;
74845;SDS011;63393;48.758;9.254;2022-09-09T14:11:13;5.10;;;1.05;;
74845;SDS011;63393;48.758;9.254;2022-09-09T14:13:41;4.88;;;1.20;;
74845;SDS011;63393;48.758;9.254;2022-09-09T14:16:09;4.63;;;1.20;;
74845;SDS011;63393;48.758;9.254;2022-09-09T14:18:38;4.47;;;1.05;;
74845;SDS011;63393;48.758;9.254;2022-09-09T14:21:06;3.42;;;1.15;;
74845;SDS011;63393;48.758;9.254;2022-09-09T14:23:34;4.45;;;1.08;;
74845;SDS011;63393;48.758;9.254;2022-09-09T14:26:04;3.95;;;1.08;;
74845;SDS011;63393;48.758;9.254;2022-09-09T14:28:32;3.75;;;1.15;;
74845;SDS011;63393;48.758;9.254;2022-09-09T14:31:00;3.25;;;1.10;;
74845;SDS011;63393;48.758;9.254;2022-09-09T14:33:28;3.92;;;1.25;;
74845;SDS011;63393;48.758;9.254;2022-09-09T14:35:59;5.40;;;1.30;;
74845;SDS011;63393;48.758;9.254;2022-09-09T14:38:28;5.05;;;0.80;;
74845;SDS011;63393;48.758;9.254;2022-09-09T14:40:57;4.32;;;1.50;;
74845;SDS011;63393;48.758;9.254;2022-09-09T14:43:26;6.15;;;1.15;;
74845;SDS011;63393;48.758;9.254;2022-09-09T14:45:55;5.57;;;1.30;;
74845;SDS011;63393;48.758;9.254;2022-09-09T14:48:23;5.78;;;1.02;;
74845;SDS011;63393;48.758;9.254;2022-09-09T14:50:51;4.28;;;1.52;;
74845;SDS011;63393;48.758;9.254;2022-09-09T14:53:19;9.05;;;1.05;;
74845;SDS011;63393;48.758;9.254;2022-09-09T14:55:47;4.35;;;0.88;;
74845;SDS011;63393;48.758;9.254;2022-09-09T14:58:14;4.65;;;0.95;;
74845;SDS011;63393;48.758;9.254;2022-09-09T15:00:44;3.50;;;1.00;;
74845;SDS011;63393;48.758;9.254;2022-09-09T15:03:11;3.80;;;1.05;;
74845;SDS011;63393;48.758;9.254;2022-09-09T15:05:42;4.78;;;1.08;;
74845;SDS011;63393;48.758;9.254;2022-09-09T15:08:10;4.78;;;1.20;;
74845;SDS011;63393;48.758;9.254;2022-09-09T15:10:39;4.50;;;1.35;;
74845;SDS011;63393;48.758;9.254;2022-09-09T15:13:06;7.05;;;1.20;;
74845;SDS011;63393;48.758;9.254;2022-09-09T15:15:34;4.90;;;1.10;;
74845;SDS011;63393;48.758;9.254;2022-09-09T15:18:03;5.80;;;1.00;;
74845;SDS011;63393;48.758;9.254;2022-09-09T15:20:31;5.88;;;1.65;;
74845;SDS011;63393;48.758;9.254;2022-09-09T15:22:58;5.57;;;1.00;;
74845;SDS011;63393;48.758;9.254;2022-09-09T15:25:28;9.73;;;1.33;;
74845;SDS011;63393;48.758;9.254;2022-09-09T15:27:55;5.93;;;1.88;;
74845;SDS011;63393;48.758;9.254;2022-09-09T15:30:23;7.60;;;1.27;;
74845;SDS011;63393;48.758;9.254;2022-09-09T15:32:52;8.70;;;1.20;;
74845;SDS011;63393;48.758;9.254;2022-09-09T15:35:21;4.45;;;0.88;;
74845;SDS011;63393;48.758;9.254;2022-09-09T15:37:49;4.68;;;1.15;;
74845;SDS011;63393;48.758;9.254;2022-09-09T15:40:17;8.43;;;1.23;;
74845;SDS011;63393;48.758;9.254;2022-09-09T15:42:46;7.20;;;1.20;;
74845;SDS011;63393;48.758;9.254;2022-09-09T15:45:14;5.40;;;1.50;;
74845;SDS011;63393;48.758;9.254;2022-09-09T15:47:42;6.55;;;1.58;;
74845;SDS011;63393;48.758;9.254;2022-09-09T15:50:10;12.27;;;2.08;;
74845;SDS011;63393;48.758;9.254;2022-09-09T15:52:39;4.38;;;1.55;;
74845;SDS011;63393;48.758;9.254;2022-09-09T15:55:08;6.00;;;1.50;;
74845;SDS011;63393;48.758;9.254;2022-09-09T15:57:37;5.88;;;1.40;;
74845;SDS011;63393;48.758;9.254;2022-09-09T16:00:05;5.20;;;1.30;;
74845;SDS011;63393;48.758;9.254;2022-09-09T16:02:34;6.80;;;1.33;;
74845;SDS011;63393;48.758;9.254;2022-09-09T16:05:01;7.93;;;2.00;;
74845;SDS011;63393;48.758;9.254;2022-09-09T16:07:29;5.10;;;1.20;;
74845;SDS011;63393;48.758;9.254;2022-09-09T16:09:58;7.47;;;2.92;;
74845;SDS011;63393;48.758;9.254;2022-09-09T16:12:26;5.93;;;1.40;;
74845;SDS011;63393;48.758;9.254;2022-09-09T16:14:56;5.53;;;1.40;;
74845;SDS011;63393;48.758;9.254;2022-09-09T16:17:25;3.28;;;1.15;;
74845;SDS011;63393;48.758;9.254;2022-09-09T16:19:52;7.45;;;1.48;;
74845;SDS011;63393;48.758;9.254;2022-09-09T16:22:20;7.28;;;1.70;;
74845;SDS011;63393;48.758;9.254;2022-09-09T16:24:54;5.38;;;1.45;;
74845;SDS011;63393;48.758;9.254;2022-09-09T16:27:24;8.13;;;2.15;;
74845;SDS011;63393;48.758;9.254;2022-09-09T16:32:22;7.32;;;1.75;;
74845;SDS011;63393;48.758;9.254;2022-09-09T16:34:51;6.60;;;1.70;;
74845;SDS011;63393;48.758;9.254;2022-09-09T16:37:18;6.10;;;1.50;;
74845;SDS011;63393;48.758;9.254;2022-09-09T16:39:46;7.05;;;1.33;;
74845;SDS011;63393;48.758;9.254;2022-09-09T16:42:15;5.65;;;1.40;;
74845;SDS011;63393;48.758;9.254;2022-09-09T16:44:44;7.18;;;1.67;;
74845;SDS011;63393;48.758;9.254;2022-09-09T16:47:15;10.05;;;2.40;;
74845;SDS011;63393;48.758;9.254;2022-09-09T16:49:43;13.68;;;4.93;;
74845;SDS011;63393;48.758;9.254;2022-09-09T16:52:10;4.45;;;1.10;;
74845;SDS011;63393;48.758;9.254;2022-09-09T16:54:38;8.30;;;2.20;;
74845;SDS011;63393;48.758;9.254;2022-09-09T16:57:06;9.48;;;3.08;;
74845;SDS011;63393;48.758;9.254;2022-09-09T16:59:34;6.40;;;1.50;;
74845;SDS011;63393;48.758;9.254;2022-09-09T17:02:03;8.93;;;2.30;;
74845;SDS011;63393;48.758;9.254;2022-09-09T17:04:30;7.28;;;1.73;;
74845;SDS011;63393;48.758;9.254;2022-09-09T17:06:58;3.58;;;0.75;;
74845;SDS011;63393;48.758;9.254;2022-09-09T17:09:27;2.00;;;0.80;;
74845;SDS011;63393;48.758;9.254;2022-09-09T17:11:57;1.95;;;0.80;;
74845;SDS011;63393;48.758;9.254;2022-09-09T17:14:25;3.10;;;0.68;;
74845;SDS011;63393;48.758;9.254;2022-09-09T17:16:53;2.17;;;1.08;;
74845;SDS011;63393;48.758;9.254;2022-09-09T17:19:22;2.50;;;0.80;;
74845;SDS011;63393;48.758;9.254;2022-09-09T17:21:49;4.68;;;1.27;;
74845;SDS011;63393;48.758;9.254;2022-09-09T17:24:16;0.63;;;0.63;;
74845;SDS011;63393;48.758;9.254;2022-09-09T17:26:44;1.65;;;0.63;;
74845;SDS011;63393;48.758;9.254;2022-09-09T17:29:11;6.85;;;1.88;;
74845;SDS011;63393;48.758;9.254;2022-09-09T17:31:39;1.73;;;0.65;;
74845;SDS011;63393;48.758;9.254;2022-09-09T17:34:07;1.58;;;0.90;;
74845;SDS011;63393;48.758;9.254;2022-09-09T17:36:37;1.20;;;0.80;;
74845;SDS011;63393;48.758;9.254;2022-09-09T17:39:05;4.40;;;0.90;;
74845;SDS011;63393;48.758;9.254;2022-09-09T17:41:34;2.38;;;0.88;;
74845;SDS011;63393;48.758;9.254;2022-09-09T17:44:01;9.13;;;3.55;;
74845;SDS011;63393;48.758;9.254;2022-09-09T17:46:30;9.75;;;2.58;;
74845;SDS011;63393;48.758;9.254;2022-09-09T17:49:00;4.28;;;1.10;;
74845;SDS011;63393;48.758;9.254;2022-09-09T17:51:28;3.40;;;0.95;;
74845;SDS011;63393;48.758;9.254;2022-09-09T17:53:59;3.80;;;1.23;;
74845;SDS011;63393;48.758;9.254;2022-09-09T17:56:28;14.45;;;6.68;;
74845;SDS011;63393;48.758;9.254;2022-09-09T17:58:58;9.60;;;2.65;;
74845;SDS011;63393;48.758;9.254;2022-09-09T18:04:01;12.30;;;3.70;;
74845;SDS011;63393;48.758;9.254;2022-09-09T18:06:35;13.52;;;4.93;;
74845;SDS011;63393;48.758;9.254;2022-09-09T18:09:19;13.18;;;4.05;;
74845;SDS011;63393;48.758;9.254;2022-09-09T18:11:48;10.55;;;3.03;;
74845;SDS011;63393;48.758;9.254;2022-09-09T18:14:18;11.32;;;3.70;;
74845;SDS011;63393;48.758;9.254;2022-09-09T18:16:46;9.85;;;2.60;;
74845;SDS011;63393;48.758;9.254;2022-09-09T18:19:16;6.97;;;1.90;;
74845;SDS011;63393;48.758;9.254;2022-09-09T18:21:44;7.03;;;2.40;;
74845;SDS011;63393;48.758;9.254;2022-09-09T18:24:12;7.90;;;2.33;;
74845;SDS011;63393;48.758;9.254;2022-09-09T18:26:48;5.35;;;1.80;;
74845;SDS011;63393;48.758;9.254;2022-09-09T18:29:18;7.75;;;2.13;;
74845;SDS011;63393;48.758;9.254;2022-09-09T18:31:46;9.82;;;2.08;;
74845;SDS011;63393;48.758;9.254;2022-09-09T18:34:15;7.75;;;2.40;;
74845;SDS011;63393;48.758;9.254;2022-09-09T18:36:43;9.90;;;2.70;;
74845;SDS011;63393;48.758;9.254;2022-09-09T18:39:12;16.48;;;8.75;;
74845;SDS011;63393;48.758;9.254;2022-09-09T18:41:41;8.23;;;2.30;;
74845;SDS011;63393;48.758;9.254;2022-09-09T18:44:11;12.63;;;5.18;;
74845;SDS011;63393;48.758;9.254;2022-09-09T18:46:41;11.10;;;3.00;;
74845;SDS011;63393;48.758;9.254;2022-09-09T18:49:09;8.57;;;2.00;;
74845;SDS011;63393;48.758;9.254;2022-09-09T18:51:39;11.90;;;3.70;;
74845;SDS011;63393;48.758;9.254;2022-09-09T18:57:04;18.75;;;8.40;;
74845;SDS011;63393;48.758;9.254;2022-09-09T18:59:36;16.25;;;6.75;;
74845;SDS011;63393;48.758;9.254;2022-09-09T19:05:00;8.70;;;2.72;;
74845;SDS011;63393;48.758;9.254;2022-09-09T19:07:28;13.23;;;4.07;;
74845;SDS011;63393;48.758;9.254;2022-09-09T19:09:55;6.25;;;1.60;;
74845;SDS011;63393;48.758;9.254;2022-09-09T19:12:25;6.22;;;1.75;;
74845;SDS011;63393;48.758;9.254;2022-09-09T19:14:55;6.90;;;1.52;;
74845;SDS011;63393;48.758;9.254;2022-09-09T19:17:22;6.57;;;1.65;;
74845;SDS011;63393;48.758;9.254;2022-09-09T19:19:51;12.65;;;3.30;;
74845;SDS011;63393;48.758;9.254;2022-09-09T19:22:19;6.93;;;2.17;;
74845;SDS011;63393;48.758;9.254;2022-09-09T19:24:51;7.32;;;1.88;;
74845;SDS011;63393;48.758;9.254;2022-09-09T19:27:21;9.70;;;2.90;;
74845;SDS011;63393;48.758;9.254;2022-09-09T19:29:48;7.25;;;1.67;;
74845;SDS011;63393;48.758;9.254;2022-09-09T19:32:23;7.20;;;2.33;;
74845;SDS011;63393;48.758;9.254;2022-09-09T19:34:51;12.02;;;4.15;;
74845;SDS011;63393;48.758;9.254;2022-09-09T19:37:19;10.88;;;3.78;;
74845;SDS011;63393;48.758;9.254;2022-09-09T19:39:47;8.98;;;2.78;;
74845;SDS011;63393;48.758;9.254;2022-09-09T19:42:19;5.50;;;2.10;;
74845;SDS011;63393;48.758;9.254;2022-09-09T19:44:48;7.15;;;2.00;;
74845;SDS011;63393;48.758;9.254;2022-09-09T19:47:16;11.73;;;4.60;;
74845;SDS011;63393;48.758;9.254;2022-09-09T19:49:50;14.90;;;6.72;;
74845;SDS011;63393;48.758;9.254;2022-09-09T19:52:23;8.65;;;2.33;;
74845;SDS011;63393;48.758;9.254;2022-09-09T19:54:52;10.70;;;3.60;;
74845;SDS011;63393;48.758;9.254;2022-09-09T19:57:19;16.73;;;8.20;;
74845;SDS011;63393;48.758;9.254;2022-09-09T19:59:50;18.80;;;9.55;;
74845;SDS011;63393;48.758;9.254;2022-09-09T20:02:17;15.80;;;6.50;;
74845;SDS011;63393;48.758;9.254;2022-09-09T20:04:45;16.13;;;6.85;;
74845;SDS011;63393;48.758;9.254;2022-09-09T20:07:15;14.07;;;4.32;;
74845;SDS011;63393;48.758;9.254;2022-09-09T20:09:43;12.65;;;4.00;;
74845;SDS011;63393;48.758;9.254;2022-09-09T20:12:12;14.60;;;4.72;;
74845;SDS011;63393;48.758;9.254;2022-09-09T20:14:45;15.20;;;5.57;;
74845;SDS011;63393;48.758;9.254;2022-09-09T20:17:16;12.73;;;4.60;;
74845;SDS011;63393;48.758;9.254;2022-09-09T20:19:45;12.82;;;4.82;;
74845;SDS011;63393;48.758;9.254;2022-09-09T20:22:20;11.23;;;2.80;;
74845;SDS011;63393;48.758;9.254;2022-09-09T20:24:47;7.80;;;2.00;;
74845;SDS011;63393;48.758;9.254;2022-09-09T20:27:16;5.40;;;1.70;;
74845;SDS011;63393;48.758;9.254;2022-09-09T20:29:46;4.85;;;1.73;;
74845;SDS011;63393;48.758;9.254;2022-09-09T20:32:14;10.20;;;2.10;;
74845;SDS011;63393;48.758;9.254;2022-09-09T20:34:41;9.45;;;2.20;;
74845;SDS011;63393;48.758;9.254;2022-09-09T20:37:10;13.23;;;2.08;;
74845;SDS011;63393;48.758;9.254;2022-09-09T20:39:39;8.48;;;2.50;;
74845;SDS011;63393;48.758;9.254;2022-09-09T20:42:07;14.48;;;3.53;;
74845;SDS011;63393;48.758;9.254;2022-09-09T20:44:34;8.50;;;2.60;;
74845;SDS011;63393;48.758;9.254;2022-09-09T20:47:03;10.10;;;2.78;;
74845;SDS011;63393;48.758;9.254;2022-09-09T20:49:31;8.45;;;2.20;;
74845;SDS011;63393;48.758;9.254;2022-09-09T20:52:00;10.02;;;2.85;;
74845;SDS011;63393;48.758;9.254;2022-09-09T20:54:28;9.32;;;2.25;;
74845;SDS011;63393;48.758;9.254;2022-09-09T20:56:57;15.80;;;4.82;;
74845;SDS011;63393;48.758;9.254;2022-09-09T20:59:25;13.98;;;4.15;;
74845;SDS011;63393;48.758;9.254;2022-09-09T21:01:53;16.00;;;6.10;;
74845;SDS011;63393;48.758;9.254;2022-09-09T21:04:21;7.40;;;2.20;;
74845;SDS011;63393;48.758;9.254;2022-09-09T21:06:49;15.52;;;4.03;;
74845;SDS011;63393;48.758;9.254;2022-09-09T21:09:18;11.85;;;3.60;;
74845;SDS011;63393;48.758;9.254;2022-09-09T21:11:47;21.25;;;9.32;;
74845;SDS011;63393;48.758;9.254;2022-09-09T21:14:16;17.23;;;4.68;;
74845;SDS011;63393;48.758;9.254;2022-09-09T21:16:43;13.50;;;4.35;;
74845;SDS011;63393;48.758;9.254;2022-09-09T21:19:11;10.30;;;3.17;;
74845;SDS011;63393;48.758;9.254;2022-09-09T21:21:38;6.97;;;1.70;;
74845;SDS011;63393;48.758;9.254;2022-09-09T21:24:06;7.35;;;2.35;;
74845;SDS011;63393;48.758;9.254;2022-09-09T21:26:33;7.80;;;2.78;;
74845;SDS011;63393;48.758;9.254;2022-09-09T21:29:01;15.73;;;5.57;;
74845;SDS011;63393;48.758;9.254;2022-09-09T21:31:30;10.90;;;3.85;;
74845;SDS011;63393;48.758;9.254;2022-09-09T21:33:57;12.25;;;3.05;;
74845;SDS011;63393;48.758;9.254;2022-09-09T21:36:25;9.73;;;2.20;;
74845;SDS011;63393;48.758;9.254;2022-09-09T21:38:53;17.23;;;6.93;;
74845;SDS011;63393;48.758;9.254;2022-09-09T21:41:23;13.88;;;5.25;;
74845;SDS011;63393;48.758;9.254;2022-09-09T21:43:53;9.80;;;2.40;;
74845;SDS011;63393;48.758;9.254;2022-09-09T21:46:23;11.27;;;2.47;;
74845;SDS011;63393;48.758;9.254;2022-09-09T21:48:52;7.50;;;1.88;;
74845;SDS011;63393;48.758;9.254;2022-09-09T21:51:21;7.55;;;1.77;;
74845;SDS011;63393;48.758;9.254;2022-09-09T21:53:48;10.95;;;2.97;;
74845;SDS011;63393;48.758;9.254;2022-09-09T21:56:17;10.15;;;2.08;;
74845;SDS011;63393;48.758;9.254;2022-09-09T21:58:44;7.43;;;2.30;;
74845;SDS011;63393;48.758;9.254;2022-09-09T22:01:12;9.98;;;2.00;;
74845;SDS011;63393;48.758;9.254;2022-09-09T22:03:41;6.80;;;1.77;;
74845;SDS011;63393;48.758;9.254;2022-09-09T22:06:10;7.50;;;1.73;;
74845;SDS011;63393;48.758;9.254;2022-09-09T22:08:38;8.77;;;2.30;;
74845;SDS011;63393;48.758;9.254;2022-09-09T22:11:08;6.75;;;1.75;;
74845;SDS011;63393;48.758;9.254;2022-09-09T22:13:36;8.45;;;2.10;;
74845;SDS011;63393;48.758;9.254;2022-09-09T22:16:04;6.57;;;1.75;;
74845;SDS011;63393;48.758;9.254;2022-09-09T22:18:32;5.95;;;1.70;;
74845;SDS011;63393;48.758;9.254;2022-09-09T22:23:32;8.82;;;2.67;;
74845;SDS011;63393;48.758;9.254;2022-09-09T22:26:00;8.82;;;2.05;;
74845;SDS011;63393;48.758;9.254;2022-09-09T22:28:28;8.43;;;2.10;;
74845;SDS011;63393;48.758;9.254;2022-09-09T22:30:56;5.57;;;1.73;;
74845;SDS011;63393;48.758;9.254;2022-09-09T22:33:23;6.25;;;1.83;;
74845;SDS011;63393;48.758;9.254;2022-09-09T22:35:51;8.55;;;1.92;;
74845;SDS011;63393;48.758;9.254;2022-09-09T22:38:19;7.38;;;1.92;;
74845;SDS011;63393;48.758;9.254;2022-09-09T22:40:48;9.02;;;2.05;;
74845;SDS011;63393;48.758;9.254;2022-09-09T22:43:16;7.68;;;1.90;;
74845;SDS011;63393;48.758;9.254;2022-09-09T22:45:45;9.77;;;3.47;;
74845;SDS011;63393;48.758;9.254;2022-09-09T22:48:13;10.52;;;2.60;;
74845;SDS011;63393;48.758;9.254;2022-09-09T22:50:41;6.57;;;2.00;;
74845;SDS011;63393;48.758;9.254;2022-09-09T22:55:40;5.00;;;1.38;;
74845;SDS011;63393;48.758;9.254;2022-09-09T22:58:09;5.85;;;1.60;;
74845;SDS011;63393;48.758;9.254;2022-09-09T23:00:37;5.50;;;1.75;;
74845;SDS011;63393;48.758;9.254;2022-09-09T23:03:06;7.68;;;1.88;;
74845;SDS011;63393;48.758;9.254;2022-09-09T23:05:33;11.65;;;1.77;;
74845;SDS011;63393;48.758;9.254;2022-09-09T23:08:03;6.22;;;1.70;;
74845;SDS011;63393;48.758;9.254;2022-09-09T23:10:31;9.27;;;1.65;;
74845;SDS011;63393;48.758;9.254;2022-09-09T23:12:59;5.78;;;1.48;;